Time;durP1;ratioP1;P1;durP2;ratioP2;P2;SDS_P1;SDS_P2;PMS_P1;PMS_P2;Temp;Humidity;BMP_temperature;BMP_pressure;BME280_temperature;BME280_humidity;BME280_pressure;Samples;Min_cycle;Max_cycle;Signal;HPM_P1;HPM_P2
2022/04/18 00:01:12;;;;;;;6.27;5.67;;;;;;;;;;5093774;28;20471;-80
2022/04/18 00:03:39;;;;;;;6.30;5.70;;;;;;;;;;5094859;28;20476;-80
2022/04/18 00:06:06;;;;;;;6.07;5.57;;;;;;;;;;5091331;28;20455;-79
2022/04/18 00:08:33;;;;;;;6.47;5.50;;;;;;;;;;5092193;28;20444;-80
2022/04/18 00:11:01;;;;;;;6.63;5.47;;;;;;;;;;5092079;28;20497;-80
2022/04/18 00:13:29;;;;;;;9.53;6.03;;;;;;;;;;5088312;28;20467;-79
2022/04/18 00:15:56;;;;;;;8.37;5.80;;;;;;;;;;5091665;28;20460;-79
2022/04/18 00:18:23;;;;;;;10.03;6.27;;;;;;;;;;5091666;28;20432;-79
2022/04/18 00:20:50;;;;;;;7.57;6.83;;;;;;;;;;5091398;28;20444;-79
2022/04/18 00:23:17;;;;;;;6.10;5.53;;;;;;;;;;5091423;28;20444;-79
2022/04/18 00:25:44;;;;;;;5.90;5.30;;;;;;;;;;5091832;28;20467;-79
2022/04/18 00:28:15;;;;;;;8.93;5.90;;;;;;;;;;5091426;28;20516;-79
2022/04/18 00:30:42;;;;;;;11.93;5.37;;;;;;;;;;5092542;28;20444;-81
2022/04/18 00:33:09;;;;;;;8.97;6.23;;;;;;;;;;5092170;28;20444;-79
2022/04/18 00:35:36;;;;;;;7.27;6.00;;;;;;;;;;5096219;28;20905;-79
2022/04/18 00:38:03;;;;;;;6.27;5.70;;;;;;;;;;5092158;28;20779;-79
2022/04/18 00:40:30;;;;;;;6.33;5.73;;;;;;;;;;5092382;28;20900;-80
2022/04/18 00:43:02;;;;;;;5.50;5.00;;;;;;;;;;5092201;28;20444;-79
2022/04/18 00:45:31;;;;;;;6.23;5.73;;;;;;;;;;5094367;28;21006;-81
2022/04/18 00:47:58;;;;;;;5.43;5.03;;;;;;;;;;5095282;28;20809;-80
2022/04/18 00:50:25;;;;;;;5.93;5.40;;;;;;;;;;5097319;28;20443;-79
2022/04/18 00:52:53;;;;;;;7.00;4.70;;;;;;;;;;5095817;28;20447;-81
2022/04/18 00:55:20;;;;;;;6.20;5.60;;;;;;;;;;5094364;28;20977;-79
2022/04/18 00:57:49;;;;;;;6.13;5.63;;;;;;;;;;5094764;28;20935;-80
2022/04/18 01:00:16;;;;;;;5.47;4.97;;;;;;;;;;5091892;28;20447;-81
2022/04/18 01:02:44;;;;;;;5.30;4.90;;;;;;;;;;5091034;28;20935;-78
2022/04/18 01:05:12;;;;;;;6.70;5.20;;;;;;;;;;5095160;28;20490;-80
2022/04/18 01:07:40;;;;;;;5.53;4.97;;;;;;;;;;5094819;28;20450;-79
2022/04/18 01:10:08;;;;;;;6.03;5.53;;;;;;;;;;5095736;28;20455;-80
2022/04/18 01:12:35;;;;;;;5.13;4.67;;;;;;;;;;5095352;28;20446;-80
2022/04/18 01:15:02;;;;;;;7.20;5.17;;;;;;;;;;5094854;28;20831;-78
2022/04/18 01:17:29;;;;;;;6.20;5.70;;;;;;;;;;5094873;28;20447;-79
2022/04/18 01:19:58;;;;;;;7.40;5.20;;;;;;;;;;5095769;28;20444;-79
2022/04/18 01:22:26;;;;;;;4.97;4.60;;;;;;;;;;5096898;28;20447;-78
2022/04/18 01:30:22;;;;;;;6.10;5.50;;;;;;;;;;5094857;28;20434;-79
2022/04/18 01:32:51;;;;;;;5.90;5.00;;;;;;;;;;5095862;28;20443;-80
2022/04/18 01:35:18;;;;;;;5.50;5.00;;;;;;;;;;5097526;28;20659;-78
2022/04/18 01:37:46;;;;;;;5.80;5.20;;;;;;;;;;5097731;28;20446;-79
2022/04/18 01:40:13;;;;;;;4.93;4.63;;;;;;;;;;5102260;28;20451;-79
2022/04/18 01:42:41;;;;;;;5.77;5.27;;;;;;;;;;5108495;28;20447;-79
2022/04/18 01:45:08;;;;;;;5.50;4.90;;;;;;;;;;5111193;28;20550;-78
2022/04/18 01:47:35;;;;;;;5.77;5.33;;;;;;;;;;5104258;28;20440;-80
2022/04/18 01:50:02;;;;;;;5.90;4.87;;;;;;;;;;5105085;28;20505;-79
2022/04/18 01:52:29;;;;;;;5.73;5.23;;;;;;;;;;5102969;28;20479;-78
2022/04/18 01:54:58;;;;;;;5.67;5.20;;;;;;;;;;5103074;28;20460;-79
2022/04/18 01:57:25;;;;;;;5.50;5.10;;;;;;;;;;5101372;28;20444;-78
2022/04/18 01:59:52;;;;;;;6.27;5.67;;;;;;;;;;5100900;28;20460;-79
2022/04/18 02:02:19;;;;;;;5.30;4.90;;;;;;;;;;5096644;28;20801;-79
2022/04/18 02:04:46;;;;;;;5.37;4.97;;;;;;;;;;5094718;28;20490;-79
2022/04/18 02:07:14;;;;;;;4.97;4.60;;;;;;;;;;5097885;28;20458;-80
2022/04/18 02:09:41;;;;;;;5.23;4.83;;;;;;;;;;5094688;28;20541;-80
2022/04/18 02:12:10;;;;;;;6.03;5.53;;;;;;;;;;5093989;28;20447;-79
2022/04/18 02:14:37;;;;;;;7.07;5.40;;;;;;;;;;5094560;28;20448;-79
2022/04/18 02:17:04;;;;;;;5.93;5.40;;;;;;;;;;5095264;28;20866;-81
2022/04/18 02:19:31;;;;;;;5.37;4.80;;;;;;;;;;5094932;28;20452;-81
2022/04/18 02:21:58;;;;;;;5.60;5.20;;;;;;;;;;5093734;28;20440;-79
2022/04/18 02:24:25;;;;;;;6.63;6.10;;;;;;;;;;5093895;28;20491;-79
2022/04/18 02:26:52;;;;;;;6.60;5.30;;;;;;;;;;5093884;28;20450;-79
2022/04/18 02:29:21;;;;;;;5.97;5.53;;;;;;;;;;5094026;28;20493;-78
2022/04/18 02:34:33;;;;;;;5.67;5.27;;;;;;;;;;5094110;28;20418;-78
2022/04/18 02:37:00;;;;;;;5.70;5.20;;;;;;;;;;5093985;28;20448;-79
2022/04/18 02:39:27;;;;;;;6.37;5.80;;;;;;;;;;5093845;28;20430;-79
2022/04/18 02:41:54;;;;;;;6.70;5.60;;;;;;;;;;5095648;28;20913;-80
2022/04/18 02:44:22;;;;;;;5.80;5.30;;;;;;;;;;5098920;28;20483;-78
2022/04/18 02:46:49;;;;;;;5.23;4.93;;;;;;;;;;5097739;28;20447;-80
2022/04/18 02:49:16;;;;;;;6.47;5.97;;;;;;;;;;5098704;28;20465;-79
2022/04/18 02:51:43;;;;;;;5.80;5.30;;;;;;;;;;5099392;28;20446;-80
2022/04/18 02:54:10;;;;;;;6.13;5.53;;;;;;;;;;5097817;28;20444;-80
2022/04/18 02:56:37;;;;;;;5.40;5.10;;;;;;;;;;5094738;28;20489;-80
2022/04/18 02:59:04;;;;;;;6.67;6.07;;;;;;;;;;5094150;28;20441;-79
2022/04/18 03:01:33;;;;;;;6.07;5.30;;;;;;;;;;5095875;28;20441;-78
2022/04/18 03:04:00;;;;;;;6.03;5.43;;;;;;;;;;5094407;28;20456;-79
2022/04/18 03:06:27;;;;;;;7.00;6.30;;;;;;;;;;5093897;28;20468;-78
2022/04/18 03:08:54;;;;;;;5.97;5.47;;;;;;;;;;5096234;28;20456;-77
2022/04/18 03:11:21;;;;;;;5.67;5.17;;;;;;;;;;5108577;28;20461;-79
2022/04/18 03:13:48;;;;;;;5.70;5.20;;;;;;;;;;5107333;28;20445;-79
2022/04/18 03:16:18;;;;;;;6.50;5.90;;;;;;;;;;5107661;28;20448;-80
2022/04/18 03:18:47;;;;;;;6.33;5.80;;;;;;;;;;5107463;28;20437;-79
2022/04/18 03:21:16;;;;;;;6.50;6.00;;;;;;;;;;5108503;28;20827;-78
2022/04/18 03:23:44;;;;;;;6.13;5.63;;;;;;;;;;5099976;28;20950;-80
2022/04/18 03:26:11;;;;;;;6.17;5.67;;;;;;;;;;5095475;28;20822;-79
2022/04/18 03:28:38;;;;;;;6.43;5.80;;;;;;;;;;5092262;28;20448;-78
2022/04/18 03:31:05;;;;;;;6.27;5.77;;;;;;;;;;5093857;28;20494;-79
2022/04/18 03:33:32;;;;;;;5.97;5.47;;;;;;;;;;5093115;28;20447;-78
2022/04/18 03:41:30;;;;;;;6.17;5.57;;;;;;;;;;5092604;28;20455;-79
2022/04/18 03:43:57;;;;;;;6.13;5.70;;;;;;;;;;5092001;28;20459;-79
2022/04/18 03:46:24;;;;;;;6.60;6.00;;;;;;;;;;5092999;28;20482;-80
2022/04/18 03:48:51;;;;;;;11.47;5.63;;;;;;;;;;5092272;28;20797;-79
2022/04/18 03:51:20;;;;;;;6.40;6.00;;;;;;;;;;5092877;28;20444;-79
2022/04/18 03:53:47;;;;;;;6.30;5.80;;;;;;;;;;5091920;28;20450;-79
2022/04/18 03:56:14;;;;;;;5.57;5.07;;;;;;;;;;5092250;28;20466;-79
2022/04/18 03:58:41;;;;;;;6.20;5.67;;;;;;;;;;5092436;28;20949;-79
2022/04/18 04:01:08;;;;;;;6.87;5.57;;;;;;;;;;5091887;28;20440;-78
2022/04/18 04:03:35;;;;;;;7.53;6.83;;;;;;;;;;5092144;28;20459;-79
2022/04/18 04:06:02;;;;;;;6.37;5.80;;;;;;;;;;5091585;28;20981;-79
2022/04/18 04:08:32;;;;;;;5.83;5.43;;;;;;;;;;5091735;28;20445;-78
2022/04/18 04:10:59;;;;;;;6.97;6.30;;;;;;;;;;5092260;28;20484;-78
2022/04/18 04:13:26;;;;;;;7.13;6.37;;;;;;;;;;5091772;28;20984;-79
2022/04/18 04:15:53;;;;;;;6.10;5.70;;;;;;;;;;5092174;28;20465;-79
2022/04/18 04:18:20;;;;;;;6.33;5.83;;;;;;;;;;5092537;28;20456;-78
2022/04/18 04:20:47;;;;;;;6.63;6.13;;;;;;;;;;5099326;28;20440;-79
2022/04/18 04:23:14;;;;;;;7.20;6.60;;;;;;;;;;5097423;28;20444;-79
2022/04/18 04:25:42;;;;;;;6.30;5.70;;;;;;;;;;5098301;28;20995;-79
2022/04/18 04:28:11;;;;;;;6.07;5.67;;;;;;;;;;5096686;28;20429;-78
2022/04/18 04:30:38;;;;;;;6.27;5.77;;;;;;;;;;5096516;28;20448;-77
2022/04/18 04:33:05;;;;;;;6.67;6.07;;;;;;;;;;5095896;28;20444;-78
2022/04/18 04:35:32;;;;;;;5.80;5.40;;;;;;;;;;5095637;28;20804;-77
2022/04/18 04:37:59;;;;;;;6.33;5.83;;;;;;;;;;5096504;28;20444;-78
2022/04/18 04:40:27;;;;;;;8.60;6.63;;;;;;;;;;5099880;28;20444;-79
2022/04/18 04:42:55;;;;;;;6.17;5.67;;;;;;;;;;5100518;28;20549;-78
2022/04/18 04:45:22;;;;;;;6.70;6.00;;;;;;;;;;5099751;28;20912;-78
2022/04/18 04:47:49;;;;;;;6.40;5.80;;;;;;;;;;5101765;28;20448;-78
2022/04/18 04:50:16;;;;;;;6.50;5.90;;;;;;;;;;5100614;28;20448;-78
2022/04/18 04:52:43;;;;;;;6.67;6.10;;;;;;;;;;5100001;28;20439;-78
2022/04/18 04:55:11;;;;;;;6.60;6.00;;;;;;;;;;5100480;28;20456;-79
2022/04/18 04:57:38;;;;;;;6.30;5.80;;;;;;;;;;5096881;28;20957;-79
2022/04/18 05:00:08;;;;;;;6.47;5.87;;;;;;;;;;5096369;28;20551;-80
2022/04/18 05:02:35;;;;;;;6.83;6.23;;;;;;;;;;5096586;28;20443;-80
2022/04/18 05:05:02;;;;;;;7.10;6.50;;;;;;;;;;5095533;28;20483;-79
2022/04/18 05:07:29;;;;;;;7.17;6.60;;;;;;;;;;5096286;28;20444;-78
2022/04/18 05:09:56;;;;;;;6.50;6.00;;;;;;;;;;5095742;28;20448;-79
2022/04/18 05:12:25;;;;;;;6.47;5.87;;;;;;;;;;5094913;28;20439;-78
2022/04/18 05:14:52;;;;;;;6.67;6.10;;;;;;;;;;5095149;28;20529;-79
2022/04/18 05:17:21;;;;;;;6.30;5.80;;;;;;;;;;5095644;28;20443;-78
2022/04/18 05:19:48;;;;;;;6.70;6.20;;;;;;;;;;5095878;28;20447;-78
2022/04/18 05:22:15;;;;;;;5.80;5.40;;;;;;;;;;5095028;28;20440;-79
2022/04/18 05:24:42;;;;;;;6.70;6.10;;;;;;;;;;5094500;28;20440;-79
2022/04/18 05:27:09;;;;;;;6.37;5.90;;;;;;;;;;5095727;28;20467;-79
2022/04/18 05:29:36;;;;;;;6.50;5.90;;;;;;;;;;5096490;28;20869;-80
2022/04/18 05:32:03;;;;;;;6.80;6.20;;;;;;;;;;5095152;28;20455;-77
2022/04/18 05:34:31;;;;;;;7.03;6.53;;;;;;;;;;5094809;28;20466;-78
2022/04/18 05:36:58;;;;;;;7.20;6.60;;;;;;;;;;5095101;28;20448;-78
2022/04/18 05:39:26;;;;;;;8.17;7.20;;;;;;;;;;5094984;28;20448;-78
2022/04/18 05:41:53;;;;;;;7.57;7.07;;;;;;;;;;5095209;28;20459;-79
2022/04/18 05:44:20;;;;;;;7.73;7.10;;;;;;;;;;5095685;28;20450;-79
2022/04/18 05:46:47;;;;;;;8.53;7.27;;;;;;;;;;5095287;28;20480;-79
2022/04/18 05:49:14;;;;;;;8.10;7.40;;;;;;;;;;5095662;28;20529;-79
2022/04/18 05:51:42;;;;;;;7.63;6.97;;;;;;;;;;5094233;28;20448;-79
2022/04/18 05:54:09;;;;;;;8.57;7.87;;;;;;;;;;5094516;28;20436;-78
2022/04/18 05:56:36;;;;;;;7.97;7.23;;;;;;;;;;5095685;28;20456;-79
2022/04/18 05:59:04;;;;;;;8.13;7.43;;;;;;;;;;5095618;28;20440;-79
2022/04/18 06:01:31;;;;;;;7.60;6.97;;;;;;;;;;5095023;28;20443;-79
2022/04/18 06:03:58;;;;;;;8.27;7.47;;;;;;;;;;5096064;28;20448;-79
2022/04/18 06:06:25;;;;;;;8.80;8.20;;;;;;;;;;5102661;28;20829;-78
2022/04/18 06:08:54;;;;;;;8.10;7.40;;;;;;;;;;5101852;28;20456;-79
2022/04/18 06:11:21;;;;;;;8.10;7.50;;;;;;;;;;5105459;28;20440;-80
2022/04/18 06:13:48;;;;;;;7.17;6.57;;;;;;;;;;5103694;28;20451;-78
2022/04/18 06:16:15;;;;;;;7.87;7.13;;;;;;;;;;5108796;28;20457;-79
2022/04/18 06:18:42;;;;;;;7.70;7.10;;;;;;;;;;5105377;28;20435;-79
2022/04/18 06:21:11;;;;;;;11.07;7.23;;;;;;;;;;5096816;28;20927;-79
2022/04/18 06:23:38;;;;;;;9.20;8.37;;;;;;;;;;5098569;28;20445;-78
2022/04/18 06:26:06;;;;;;;7.83;7.30;;;;;;;;;;5105299;28;20493;-79
2022/04/18 06:28:33;;;;;;;7.87;7.27;;;;;;;;;;5095970;28;20440;-81
2022/04/18 06:31:00;;;;;;;8.07;7.47;;;;;;;;;;5094493;28;20447;-79
2022/04/18 06:33:28;;;;;;;8.17;7.40;;;;;;;;;;5093935;28;20853;-80
2022/04/18 06:35:55;;;;;;;7.50;6.83;;;;;;;;;;5095565;28;20521;-80
2022/04/18 06:38:24;;;;;;;7.10;6.50;;;;;;;;;;5094743;28;20547;-79
2022/04/18 06:40:51;;;;;;;7.43;6.70;;;;;;;;;;5096891;28;20439;-79
2022/04/18 06:43:20;;;;;;;7.00;6.40;;;;;;;;;;5096293;28;20526;-81
2022/04/18 06:45:47;;;;;;;7.63;6.87;;;;;;;;;;5096659;28;20535;-79
2022/04/18 06:48:14;;;;;;;7.10;6.60;;;;;;;;;;5094629;28;20443;-79
2022/04/18 06:50:41;;;;;;;6.97;6.47;;;;;;;;;;5094495;28;20438;-79
2022/04/18 06:53:10;;;;;;;7.30;6.60;;;;;;;;;;5094001;28;20440;-79
2022/04/18 06:58:24;;;;;;;12.77;6.77;;;;;;;;;;5103013;28;20888;-79
2022/04/18 07:00:51;;;;;;;7.77;7.10;;;;;;;;;;5097403;28;20443;-79
2022/04/18 07:03:18;;;;;;;6.87;6.30;;;;;;;;;;5094977;28;20806;-80
2022/04/18 07:05:45;;;;;;;7.47;6.97;;;;;;;;;;5093734;28;20480;-79
2022/04/18 07:08:12;;;;;;;6.70;6.10;;;;;;;;;;5094792;28;21119;-79
2022/04/18 07:10:39;;;;;;;6.97;6.37;;;;;;;;;;5095002;28;20455;-79
2022/04/18 07:13:06;;;;;;;7.93;7.17;;;;;;;;;;5094743;28;20436;-82
2022/04/18 07:15:34;;;;;;;7.00;6.40;;;;;;;;;;5097859;28;20464;-81
2022/04/18 07:18:03;;;;;;;6.70;6.10;;;;;;;;;;5094148;28;20532;-79
2022/04/18 07:20:30;;;;;;;7.30;5.97;;;;;;;;;;5093471;28;20542;-79
2022/04/18 07:22:57;;;;;;;6.40;5.83;;;;;;;;;;5094043;28;20443;-80
2022/04/18 07:25:24;;;;;;;6.53;5.93;;;;;;;;;;5096724;28;20454;-80
2022/04/18 07:27:51;;;;;;;6.90;6.30;;;;;;;;;;5094714;28;20443;-81
2022/04/18 07:30:18;;;;;;;6.53;5.63;;;;;;;;;;5094341;28;20448;-81
2022/04/18 07:32:46;;;;;;;6.40;5.90;;;;;;;;;;5093846;28;20440;-81
2022/04/18 07:35:14;;;;;;;7.40;6.63;;;;;;;;;;5092643;28;20471;-79
2022/04/18 07:38:48;;;;;;;6.70;6.20;;;;;;;;;;5094760;28;20425;-79
2022/04/18 07:40:29;;;;;;;6.70;6.00;;;;;;;;;;5093282;28;20616;-79
2022/04/18 07:42:56;;;;;;;6.57;6.07;;;;;;;;;;5094040;28;20456;-80
2022/04/18 07:45:23;;;;;;;6.67;6.07;;;;;;;;;;5098627;28;20471;-79
2022/04/18 07:47:53;;;;;;;6.00;5.50;;;;;;;;;;5098501;28;20716;-79
2022/04/18 07:51:31;;;;;;;8.70;6.00;;;;;;;;;;5093802;28;20443;-79
2022/04/18 07:53:07;;;;;;;5.90;5.40;;;;;;;;;;5100102;28;20436;-81
2022/04/18 07:55:34;;;;;;;5.43;5.03;;;;;;;;;;5097165;28;20443;-81
2022/04/18 07:58:01;;;;;;;7.53;5.60;;;;;;;;;;5099735;28;20444;-80
2022/04/18 08:00:28;;;;;;;7.80;6.40;;;;;;;;;;5093572;28;20547;-79
2022/04/18 08:02:57;;;;;;;6.77;6.17;;;;;;;;;;5092147;28;20448;-80
2022/04/18 08:05:24;;;;;;;6.77;6.03;;;;;;;;;;5093893;28;20832;-80
2022/04/18 08:07:51;;;;;;;6.50;6.00;;;;;;;;;;5092720;28;20474;-79
2022/04/18 08:10:18;;;;;;;6.80;6.23;;;;;;;;;;5093029;28;20439;-79
2022/04/18 08:12:45;;;;;;;6.90;6.30;;;;;;;;;;5092203;28;20489;-79
2022/04/18 08:15:12;;;;;;;6.33;5.83;;;;;;;;;;5093150;28;20471;-80
2022/04/18 08:17:39;;;;;;;7.63;6.10;;;;;;;;;;5095163;28;20440;-81
2022/04/18 08:20:08;;;;;;;5.70;5.20;;;;;;;;;;5093020;28;20428;-80
2022/04/18 08:22:35;;;;;;;6.30;5.77;;;;;;;;;;5095174;28;20450;-79
2022/04/18 08:25:03;;;;;;;6.43;5.83;;;;;;;;;;5093859;28;20471;-81
2022/04/18 08:27:30;;;;;;;6.37;5.80;;;;;;;;;;5094404;28;20484;-80
2022/04/18 08:29:57;;;;;;;6.00;5.33;;;;;;;;;;5103015;28;20539;-81
2022/04/18 08:32:24;;;;;;;5.60;5.00;;;;;;;;;;5105054;28;20824;-81
2022/04/18 08:34:53;;;;;;;6.00;5.50;;;;;;;;;;5093170;28;20474;-80
2022/04/18 08:37:21;;;;;;;5.97;5.40;;;;;;;;;;5092755;28;20530;-80
2022/04/18 08:39:48;;;;;;;6.00;5.50;;;;;;;;;;5095330;28;20446;-81
2022/04/18 08:42:16;;;;;;;5.73;5.23;;;;;;;;;;5094325;28;20436;-79
2022/04/18 08:44:44;;;;;;;5.77;5.27;;;;;;;;;;5095271;28;20454;-79
2022/04/18 08:52:43;;;;;;;5.70;5.20;;;;;;;;;;5094260;28;20464;-80
2022/04/18 08:52:46;;;;;;;4.87;4.47;;;;;;;;;;5098401;28;20465;-81
2022/04/18 08:55:14;;;;;;;4.80;4.43;;;;;;;;;;5097725;28;20472;-79
2022/04/18 08:57:41;;;;;;;5.73;5.17;;;;;;;;;;5097837;28;20462;-80
2022/04/18 09:00:09;;;;;;;4.93;4.53;;;;;;;;;;5097382;28;20450;-80
2022/04/18 09:02:36;;;;;;;5.30;4.80;;;;;;;;;;5094267;28;21013;-81
2022/04/18 09:05:03;;;;;;;5.50;5.00;;;;;;;;;;5096130;28;20988;-82
2022/04/18 09:07:30;;;;;;;5.87;5.30;;;;;;;;;;5095156;28;20502;-80
2022/04/18 09:09:59;;;;;;;5.63;5.13;;;;;;;;;;5096475;28;20444;-80
2022/04/18 09:12:29;;;;;;;5.33;4.93;;;;;;;;;;5099200;28;20436;-80
2022/04/18 09:14:56;;;;;;;5.37;4.87;;;;;;;;;;5100236;28;20472;-80
2022/04/18 09:17:33;;;;;;;4.83;4.50;;;;;;;;;;5098652;28;20440;-81
2022/04/18 09:20:05;;;;;;;5.60;5.20;;;;;;;;;;5097135;28;20444;-80
2022/04/18 09:22:32;;;;;;;4.87;4.47;;;;;;;;;;5094563;28;20444;-80
2022/04/18 09:25:00;;;;;;;5.33;4.83;;;;;;;;;;5096937;28;20460;-80
2022/04/18 09:27:29;;;;;;;4.77;4.37;;;;;;;;;;5101802;28;20481;-81
2022/04/18 09:30:02;;;;;;;5.50;4.93;;;;;;;;;;5100614;28;20439;-81
2022/04/18 09:32:29;;;;;;;5.80;5.30;;;;;;;;;;5102097;28;20431;-80
2022/04/18 09:35:00;;;;;;;4.70;4.40;;;;;;;;;;5099581;28;20474;-81
2022/04/18 09:37:29;;;;;;;5.33;4.73;;;;;;;;;;5102344;28;20439;-80
2022/04/18 09:39:57;;;;;;;8.17;7.40;;;;;;;;;;5101905;28;20446;-80
2022/04/18 09:42:26;;;;;;;4.47;4.17;;;;;;;;;;5098852;28;20443;-80
2022/04/18 09:44:53;;;;;;;4.40;4.00;;;;;;;;;;5100241;28;20463;-79
2022/04/18 09:47:21;;;;;;;4.80;4.40;;;;;;;;;;5098216;28;20474;-80
2022/04/18 09:49:48;;;;;;;5.83;5.33;;;;;;;;;;5099486;28;20881;-80
2022/04/18 09:52:16;;;;;;;5.57;5.07;;;;;;;;;;5099976;28;20447;-81
2022/04/18 09:54:46;;;;;;;5.40;4.90;;;;;;;;;;5100193;28;20485;-80
2022/04/18 09:57:13;;;;;;;4.30;4.00;;;;;;;;;;5102431;28;20436;-80
2022/04/18 09:59:42;;;;;;;4.97;4.57;;;;;;;;;;5099429;28;20474;-79
2022/04/18 10:02:13;;;;;;;4.17;3.87;;;;;;;;;;5099378;28;20440;-79
2022/04/18 10:04:40;;;;;;;5.27;4.73;;;;;;;;;;5105835;28;20424;-79
2022/04/18 10:07:08;;;;;;;5.63;5.13;;;;;;;;;;5099106;28;21021;-81
2022/04/18 10:09:35;;;;;;;5.00;4.57;;;;;;;;;;5097016;28;20462;-80
2022/04/18 10:12:03;;;;;;;4.63;4.10;;;;;;;;;;5098639;28;20455;-79
2022/04/18 10:14:30;;;;;;;4.83;4.43;;;;;;;;;;5100258;28;20477;-79
2022/04/18 10:16:59;;;;;;;4.50;4.10;;;;;;;;;;5101312;28;20432;-81
2022/04/18 10:19:34;;;;;;;4.40;4.10;;;;;;;;;;5099828;28;20486;-80
2022/04/18 10:22:07;;;;;;;4.63;4.23;;;;;;;;;;5098916;28;20451;-79
2022/04/18 10:24:45;;;;;;;5.83;5.30;;;;;;;;;;5099577;28;20970;-81
2022/04/18 10:27:34;;;;;;;3.73;3.43;;;;;;;;;;5101887;28;20478;-81
2022/04/18 10:30:02;;;;;;;4.50;4.10;;;;;;;;;;5102316;28;20463;-81
2022/04/18 10:32:31;;;;;;;4.10;3.80;;;;;;;;;;5103681;28;20434;-81
2022/04/18 10:35:00;;;;;;;4.80;4.40;;;;;;;;;;5103642;28;20460;-80
2022/04/18 10:37:28;;;;;;;5.00;4.13;;;;;;;;;;5102620;28;20820;-80
2022/04/18 10:39:59;;;;;;;6.07;4.50;;;;;;;;;;5103527;28;20443;-81
2022/04/18 10:42:31;;;;;;;4.23;3.83;;;;;;;;;;5100463;28;20432;-80
2022/04/18 10:45:02;;;;;;;4.07;3.77;;;;;;;;;;5102288;28;20474;-80
2022/04/18 10:47:44;;;;;;;4.00;3.70;;;;;;;;;;5101993;28;20475;-80
2022/04/18 10:50:19;;;;;;;4.47;4.07;;;;;;;;;;5099356;28;20435;-79
2022/04/18 10:53:01;;;;;;;4.90;4.50;;;;;;;;;;5101587;28;20492;-81
2022/04/18 10:55:28;;;;;;;4.17;3.87;;;;;;;;;;5101949;28;20483;-81
2022/04/18 10:58:09;;;;;;;4.10;3.80;;;;;;;;;;5100090;28;20436;-81
2022/04/18 11:00:46;;;;;;;3.90;3.70;;;;;;;;;;5101606;28;20436;-81
2022/04/18 11:03:13;;;;;;;4.00;3.70;;;;;;;;;;5102189;28;20443;-81
2022/04/18 11:05:42;;;;;;;4.17;3.77;;;;;;;;;;5101010;28;20471;-80
2022/04/18 11:08:24;;;;;;;4.10;3.80;;;;;;;;;;5102456;28;20472;-80
2022/04/18 11:10:51;;;;;;;3.40;3.20;;;;;;;;;;5102403;28;20416;-80
2022/04/18 11:13:18;;;;;;;4.07;3.80;;;;;;;;;;5101812;28;20443;-82
2022/04/18 11:15:45;;;;;;;3.77;3.57;;;;;;;;;;5100867;28;20460;-81
2022/04/18 11:18:28;;;;;;;4.33;4.03;;;;;;;;;;5102869;28;20454;-81
2022/04/18 11:20:56;;;;;;;4.20;3.90;;;;;;;;;;5116999;28;20432;-81
2022/04/18 11:23:26;;;;;;;3.40;2.97;;;;;;;;;;5106381;28;20428;-81
2022/04/18 11:25:54;;;;;;;3.50;3.20;;;;;;;;;;5096483;28;20455;-80
2022/04/18 11:28:21;;;;;;;5.60;3.70;;;;;;;;;;5095560;28;20471;-81
2022/04/18 11:30:48;;;;;;;4.23;3.93;;;;;;;;;;5097028;28;20452;-80
2022/04/18 11:33:15;;;;;;;4.60;4.10;;;;;;;;;;5098086;28;20958;-80
2022/04/18 11:35:43;;;;;;;4.30;4.00;;;;;;;;;;5099781;28;20456;-80
2022/04/18 11:38:13;;;;;;;4.10;3.70;;;;;;;;;;5102577;28;20440;-81
2022/04/18 11:40:40;;;;;;;4.40;4.03;;;;;;;;;;5101120;28;20556;-81
2022/04/18 11:43:11;;;;;;;4.13;3.73;;;;;;;;;;5102045;28;20468;-81
2022/04/18 11:45:39;;;;;;;4.90;3.20;;;;;;;;;;5101844;28;20463;-80
2022/04/18 11:48:06;;;;;;;4.20;3.90;;;;;;;;;;5101401;28;20471;-80
2022/04/18 11:50:37;;;;;;;4.20;3.90;;;;;;;;;;5102079;28;20545;-81
2022/04/18 11:53:05;;;;;;;4.07;3.77;;;;;;;;;;5099582;28;20507;-80
2022/04/18 11:55:33;;;;;;;4.17;3.87;;;;;;;;;;5098724;28;20471;-80
2022/04/18 11:58:00;;;;;;;4.13;3.50;;;;;;;;;;5097703;28;20876;-80
2022/04/18 12:08:53;;;;;;;3.43;3.20;;;;;;;;;;5098953;28;20475;-81
2022/04/18 12:11:22;;;;;;;4.50;4.20;;;;;;;;;;5099783;28;20515;-80
2022/04/18 12:13:49;;;;;;;4.23;3.87;;;;;;;;;;5098637;28;20452;-80
2022/04/18 12:16:18;;;;;;;4.03;3.50;;;;;;;;;;5100082;28;20464;-80
2022/04/18 12:18:46;;;;;;;3.17;2.93;;;;;;;;;;5100950;28;20593;-80
2022/04/18 12:21:13;;;;;;;3.57;3.23;;;;;;;;;;5099430;28;20466;-80
2022/04/18 12:23:41;;;;;;;3.93;2.97;;;;;;;;;;5099482;28;20830;-80
2022/04/18 12:26:11;;;;;;;3.70;3.50;;;;;;;;;;5098794;28;20491;-80
2022/04/18 12:28:39;;;;;;;3.60;3.30;;;;;;;;;;5097711;28;20463;-80
2022/04/18 12:31:09;;;;;;;3.23;2.93;;;;;;;;;;5099073;28;21019;-80
2022/04/18 12:33:46;;;;;;;3.93;3.07;;;;;;;;;;5097473;28;20447;-80
2022/04/18 12:36:23;;;;;;;3.50;3.20;;;;;;;;;;5098209;28;20460;-80
2022/04/18 12:38:51;;;;;;;4.07;3.70;;;;;;;;;;5098307;28;20439;-81
2022/04/18 12:41:27;;;;;;;3.10;2.90;;;;;;;;;;5099868;28;20435;-81
2022/04/18 12:43:55;;;;;;;3.87;3.57;;;;;;;;;;5098757;28;20423;-80
2022/04/18 12:46:25;;;;;;;3.40;3.20;;;;;;;;;;5102622;28;20962;-81
2022/04/18 12:48:52;;;;;;;3.20;3.00;;;;;;;;;;5099064;28;21042;-80
2022/04/18 12:51:30;;;;;;;2.80;2.60;;;;;;;;;;5100274;28;20471;-79
2022/04/18 12:53:57;;;;;;;3.77;3.47;;;;;;;;;;5096421;28;20431;-78
2022/04/18 12:56:25;;;;;;;3.30;3.10;;;;;;;;;;5096286;28;20483;-80
2022/04/18 12:59:01;;;;;;;3.47;3.17;;;;;;;;;;5101003;28;20424;-82
2022/04/18 13:01:30;;;;;;;3.90;3.60;;;;;;;;;;5108071;28;20815;-80
2022/04/18 13:03:57;;;;;;;3.07;2.87;;;;;;;;;;5109267;28;20443;-80
2022/04/18 13:06:24;;;;;;;3.10;2.80;;;;;;;;;;5110244;28;20470;-79
2022/04/18 13:08:51;;;;;;;3.40;3.20;;;;;;;;;;5105037;28;20480;-80
2022/04/18 13:11:18;;;;;;;3.47;3.17;;;;;;;;;;5102684;28;20943;-79
2022/04/18 13:13:46;;;;;;;2.90;2.70;;;;;;;;;;5108919;28;20440;-80
2022/04/18 13:16:23;;;;;;;3.30;2.97;;;;;;;;;;5101485;28;20466;-79
2022/04/18 13:18:57;;;;;;;3.30;3.10;;;;;;;;;;5101600;28;20448;-79
2022/04/18 13:21:24;;;;;;;4.63;3.27;;;;;;;;;;5101388;28;20443;-81
2022/04/18 13:23:52;;;;;;;3.47;3.20;;;;;;;;;;5112822;28;20443;-80
2022/04/18 13:26:19;;;;;;;2.77;2.63;;;;;;;;;;5104358;28;20460;-80
2022/04/18 13:28:46;;;;;;;2.97;2.80;;;;;;;;;;5100001;28;20490;-80
2022/04/18 13:31:13;;;;;;;3.50;3.20;;;;;;;;;;5096265;28;20461;-79
2022/04/18 13:33:41;;;;;;;3.10;2.90;;;;;;;;;;5096151;28;20465;-80
2022/04/18 13:38:53;;;;;;;3.03;2.83;;;;;;;;;;5097426;28;20423;-79
2022/04/18 13:41:20;;;;;;;2.90;2.70;;;;;;;;;;5095823;28;20446;-79
2022/04/18 13:43:48;;;;;;;3.20;2.90;;;;;;;;;;5095135;28;20439;-79
2022/04/18 13:46:15;;;;;;;3.10;2.90;;;;;;;;;;5099490;28;20909;-79
2022/04/18 13:48:47;;;;;;;3.10;2.67;;;;;;;;;;5098905;28;20598;-78
2022/04/18 13:51:14;;;;;;;3.27;3.00;;;;;;;;;;5099110;28;20451;-79
2022/04/18 13:53:41;;;;;;;4.40;4.00;;;;;;;;;;5098551;28;20444;-78
2022/04/18 13:56:08;;;;;;;4.30;4.00;;;;;;;;;;5100260;28;20468;-79
2022/04/18 13:58:35;;;;;;;3.60;3.07;;;;;;;;;;5099018;28;20442;-78
2022/04/18 14:01:02;;;;;;;3.93;3.63;;;;;;;;;;5098988;28;20439;-79
2022/04/18 14:03:29;;;;;;;2.80;2.60;;;;;;;;;;5099803;28;20439;-79
2022/04/18 14:05:59;;;;;;;3.80;2.90;;;;;;;;;;5098773;28;20495;-79
2022/04/18 14:08:26;;;;;;;3.00;2.80;;;;;;;;;;5098853;28;20487;-79
2022/04/18 14:10:53;;;;;;;2.30;2.20;;;;;;;;;;5099813;28;20436;-80
2022/04/18 14:13:21;;;;;;;2.80;2.60;;;;;;;;;;5098058;28;20448;-83
2022/04/18 14:21:19;;;;;;;3.17;2.97;;;;;;;;;;5117586;28;20419;-78
2022/04/18 14:23:46;;;;;;;2.40;2.20;;;;;;;;;;5118241;28;20434;-77
2022/04/18 14:26:15;;;;;;;3.50;3.20;;;;;;;;;;5118587;28;20455;-77
2022/04/18 14:28:42;;;;;;;4.50;3.87;;;;;;;;;;5118817;28;20494;-78
2022/04/18 14:31:09;;;;;;;3.17;2.87;;;;;;;;;;5119016;28;20427;-77
2022/04/18 14:33:36;;;;;;;2.83;2.63;;;;;;;;;;5118733;28;20475;-77
2022/04/18 14:36:04;;;;;;;3.07;2.80;;;;;;;;;;5118575;28;20522;-78
2022/04/18 14:38:33;;;;;;;2.73;2.53;;;;;;;;;;5115201;28;20436;-80
2022/04/18 14:41:00;;;;;;;3.13;2.93;;;;;;;;;;5097695;28;20443;-79
2022/04/18 14:43:28;;;;;;;2.70;2.50;;;;;;;;;;5098052;28;20432;-81
2022/04/18 14:45:55;;;;;;;3.93;3.60;;;;;;;;;;5097449;28;20517;-79
2022/04/18 14:48:22;;;;;;;3.07;2.77;;;;;;;;;;5098085;28;20509;-79
2022/04/18 14:50:49;;;;;;;2.93;2.73;;;;;;;;;;5098468;28;20431;-79
2022/04/18 14:53:16;;;;;;;4.57;3.20;;;;;;;;;;5098689;28;20451;-82
2022/04/18 14:55:44;;;;;;;4.50;2.87;;;;;;;;;;5098921;28;20460;-79
2022/04/18 14:58:11;;;;;;;3.23;2.93;;;;;;;;;;5097939;28;20447;-78
2022/04/18 15:00:38;;;;;;;2.70;2.50;;;;;;;;;;5098506;28;20454;-80
2022/04/18 15:03:06;;;;;;;2.80;2.60;;;;;;;;;;5098585;28;20463;-79
2022/04/18 15:05:33;;;;;;;2.80;2.60;;;;;;;;;;5098382;28;20468;-80
2022/04/18 15:08:00;;;;;;;2.90;2.70;;;;;;;;;;5099316;28;20470;-79
2022/04/18 15:10:27;;;;;;;3.87;3.00;;;;;;;;;;5097947;28;20889;-79
2022/04/18 15:12:56;;;;;;;2.77;2.57;;;;;;;;;;5098034;28;20455;-79
2022/04/18 15:15:23;;;;;;;3.20;2.67;;;;;;;;;;5106871;28;20546;-79
2022/04/18 15:17:50;;;;;;;2.50;2.27;;;;;;;;;;5107131;28;20469;-78
2022/04/18 15:20:17;;;;;;;2.67;2.37;;;;;;;;;;5105450;28;20447;-77
2022/04/18 15:22:44;;;;;;;5.03;2.50;;;;;;;;;;5106010;28;20439;-78
2022/04/18 15:25:12;;;;;;;2.70;2.50;;;;;;;;;;5104972;28;20464;-79